createdAt,value
2017-06-14T00:00:38.072Z,45.57
2017-06-14T00:01:48.016Z,45.67
2017-06-14T00:02:58.270Z,45.38
2017-06-14T00:04:08.215Z,45.28
2017-06-14T00:05:18.477Z,45
2017-06-14T00:06:28.431Z,45.38
2017-06-14T00:07:37.439Z,45.38
2017-06-14T00:08:47.703Z,44.6
2017-06-14T00:09:57.969Z,44.7
2017-06-14T00:11:08.229Z,44.6
2017-06-14T00:12:18.489Z,44.7
2017-06-14T00:13:28.434Z,45.28
2017-06-14T00:14:38.380Z,44.9
2017-06-14T00:15:48.008Z,44.7
2017-06-14T00:16:58.268Z,45.18
2017-06-14T00:18:08.217Z,44.9
2017-06-14T00:19:18.485Z,44.8
2017-06-14T00:20:28.741Z,44.9
2017-06-14T00:21:38.061Z,45.28
2017-06-14T00:22:47.378Z,44.8
2017-06-14T00:23:57.331Z,44.9
2017-06-14T00:25:07.598Z,44.9
2017-06-14T00:26:17.858Z,45
2017-06-14T00:27:28.124Z,44.7
2017-06-14T00:28:38.095Z,44.9
2017-06-14T00:29:48.052Z,44.7
2017-06-14T00:30:58.005Z,44.9
2017-06-14T00:32:07.645Z,44.8
2017-06-14T00:33:17.963Z,44.9
2017-06-14T00:34:27.910Z,44.51
2017-06-14T00:35:38.172Z,44.8
2017-06-14T00:36:48.151Z,44.7
2017-06-14T00:37:58.098Z,44.9
2017-06-14T00:39:08.362Z,44.51
2017-06-14T00:40:18.635Z,44.8
2017-06-14T00:41:28.892Z,44.9
2017-06-14T00:42:39.166Z,44.6
2017-06-14T00:43:49.109Z,44.7
2017-06-14T00:44:59.055Z,44.9
2017-06-14T00:46:09.009Z,44.6
2017-06-14T00:47:18.643Z,44.9
2017-06-14T00:48:28.902Z,44.6
2017-06-14T00:49:39.160Z,44.6
2017-06-14T00:50:49.109Z,44.42
2017-06-14T00:51:59.373Z,44.22
2017-06-14T00:53:09.006Z,44.51
2017-06-14T00:54:19.274Z,44.22
2017-06-14T00:55:28.906Z,44.51
2017-06-14T00:56:38.859Z,44.51
2017-06-14T00:57:48.806Z,44.6
2017-06-14T00:58:58.446Z,44.6
2017-06-14T01:00:08.716Z,44.22
2017-06-14T01:01:18.978Z,44.51
2017-06-14T01:02:28.928Z,44.6
2017-06-14T01:03:38.880Z,44.22
2017-06-14T01:04:49.145Z,44.22
2017-06-14T01:05:59.091Z,44.6
2017-06-14T01:07:09.353Z,44.9
2017-06-14T01:08:18.997Z,44.8
2017-06-14T01:09:28.946Z,44.22
2017-06-14T01:10:38.892Z,44.12
2017-06-14T01:11:49.152Z,44.32
2017-06-14T01:12:59.100Z,44.9
2017-06-14T01:14:09.053Z,44.9
2017-06-14T01:15:18.688Z,44.12
2017-06-14T01:16:28.318Z,44.51
2017-06-14T01:17:38.582Z,44.7
2017-06-14T01:18:48.528Z,44.6
2017-06-14T01:19:58.790Z,44.6
2017-06-14T01:21:09.057Z,44.03
2017-06-14T01:22:19.004Z,44.42
2017-06-14T01:23:28.951Z,44.03
2017-06-14T01:24:39.213Z,44.12
2017-06-14T01:25:48.846Z,44.6
2017-06-14T01:26:58.794Z,44.51
2017-06-14T01:28:09.057Z,44.42
2017-06-14T01:29:19.005Z,44.32
2017-06-14T01:30:28.641Z,44.8
2017-06-14T01:31:38.591Z,44.7
2017-06-14T01:32:47.594Z,44.7
2017-06-14T01:33:57.860Z,44.7
2017-06-14T01:35:08.119Z,44.12
2017-06-14T01:36:18.381Z,44.51
2017-06-14T01:37:28.326Z,44.6
2017-06-14T01:38:38.588Z,44.6
2017-06-14T01:39:48.848Z,44.42
2017-06-14T01:40:58.798Z,44.2
2017-06-14T01:42:08.743Z,44.6
2017-06-14T01:43:18.693Z,44.32
2017-06-14T01:44:28.950Z,44.6
2017-06-14T01:45:39.212Z,44.6
2017-06-14T01:46:49.479Z,44.8
2017-06-14T01:47:59.111Z,44.7
2017-06-14T01:49:09.059Z,44.32
2017-06-14T01:50:19.315Z,44.49
2017-06-14T01:51:29.262Z,44.32
2017-06-14T01:52:39.526Z,44.32
2017-06-14T01:53:49.475Z,44.87
2017-06-14T01:54:59.108Z,44.51
2017-06-14T01:56:09.062Z,44.59
2017-06-14T01:57:19.321Z,44.42
2017-06-14T01:58:29.586Z,44.42
2017-06-14T01:59:39.537Z,44.49
2017-06-14T02:00:49.483Z,44.59
2017-06-14T02:01:59.430Z,44.39
2017-06-14T02:03:09.375Z,44.49
2017-06-14T02:04:19.331Z,44.59
2017-06-14T02:05:29.597Z,44.49
2017-06-14T02:06:39.551Z,44.68
2017-06-14T02:07:49.813Z,44.78
2017-06-14T02:09:00.073Z,44.97
2017-06-14T02:10:09.701Z,44.78
2017-06-14T02:11:19.963Z,44.49
2017-06-14T02:12:29.912Z,44.59
2017-06-14T02:13:40.177Z,44.87
2017-06-14T02:14:50.436Z,44.78
2017-06-14T02:16:00.377Z,45.07
2017-06-14T02:17:10.363Z,44.87
2017-06-14T02:18:20.623Z,44.97
2017-06-14T02:19:30.569Z,44.49
2017-06-14T02:20:40.836Z,44.78
2017-06-14T02:21:51.188Z,44.68
2017-06-14T02:23:00.818Z,44.87
2017-06-14T02:24:11.121Z,44.59
2017-06-14T02:25:21.071Z,44.68
2017-06-14T02:26:31.018Z,44.78
2017-06-14T02:27:41.286Z,44.87
2017-06-14T02:28:51.235Z,44.68
2017-06-14T02:30:00.868Z,44.87
2017-06-14T02:31:11.133Z,44.87
2017-06-14T02:32:21.397Z,44.49
2017-06-14T02:33:31.660Z,44.39
2017-06-14T02:34:41.923Z,44.78
2017-06-14T02:35:52.185Z,44.49
2017-06-14T02:37:01.822Z,45.07
2017-06-14T02:38:11.462Z,44.78
2017-06-14T02:39:21.724Z,44.78
2017-06-14T02:40:31.992Z,45.07
2017-06-14T02:41:41.977Z,44.87
2017-06-14T02:42:51.607Z,44.97
2017-06-14T02:44:01.558Z,44.68
2017-06-14T02:45:11.825Z,44.78
2017-06-14T02:46:22.126Z,44.78
2017-06-14T02:47:32.400Z,44.97
2017-06-14T02:48:42.669Z,44.78
2017-06-14T02:49:52.932Z,44.87
2017-06-14T02:51:03.194Z,45.07
2017-06-14T02:52:12.824Z,44.78
2017-06-14T02:53:23.089Z,44.78
2017-06-14T02:54:33.344Z,45.07
2017-06-14T02:55:43.606Z,44.78
2017-06-14T02:56:53.580Z,44.49
2017-06-14T02:58:03.875Z,44.97
2017-06-14T02:59:14.140Z,44.68
2017-06-14T03:00:23.773Z,44.97
2017-06-14T03:01:33.720Z,44.68
2017-06-14T03:02:43.351Z,44.78
2017-06-14T03:03:53.604Z,45.07
2017-06-14T03:05:03.548Z,44.87
2017-06-14T03:06:13.181Z,44.87
2017-06-14T03:07:23.440Z,44.87
2017-06-14T03:08:33.720Z,44.78
2017-06-14T03:09:43.983Z,45.07
2017-06-14T03:10:54.245Z,44.68
2017-06-14T03:12:04.513Z,45.07
2017-06-14T03:13:14.455Z,44.78
2017-06-14T03:14:24.400Z,44.78
2017-06-14T03:15:34.351Z,44.87
2017-06-14T03:16:44.297Z,44.49
2017-06-14T03:17:54.557Z,44.29
2017-06-14T03:19:04.193Z,44.78
2017-06-14T03:20:13.820Z,44.39
2017-06-14T03:21:23.768Z,44.59
2017-06-14T03:22:34.023Z,44.59
2017-06-14T03:23:43.972Z,44.78
2017-06-14T03:24:54.238Z,44.68
2017-06-14T03:26:04.185Z,44.87
2017-06-14T03:27:14.135Z,44.78
2017-06-14T03:28:24.405Z,44.68
2017-06-14T03:29:34.663Z,44.87
2017-06-14T03:30:44.931Z,44.97
2017-06-14T03:31:54.876Z,44.97
2017-06-14T03:33:04.826Z,45.07
2017-06-14T03:34:14.780Z,44.87
2017-06-14T03:35:24.727Z,44.68
2017-06-14T03:36:34.682Z,44.78
2017-06-14T03:37:44.950Z,44.68
2017-06-14T03:38:54.895Z,44.87
2017-06-14T03:40:05.155Z,45.07
2017-06-14T03:41:14.468Z,44.68
2017-06-14T03:42:24.730Z,44.78
2017-06-14T03:43:34.680Z,44.97
2017-06-14T03:44:44.313Z,44.97
2017-06-14T03:45:54.578Z,44.78
2017-06-14T03:47:04.524Z,45.17
2017-06-14T03:48:14.787Z,45.07
2017-06-14T03:49:25.049Z,44.78
2017-06-14T03:50:35.316Z,44.87
2017-06-14T03:51:45.585Z,44.78
2017-06-14T03:52:55.224Z,44.87
2017-06-14T03:54:05.174Z,45.07
2017-06-14T03:55:15.437Z,44.78
2017-06-14T03:56:25.718Z,44.87
2017-06-14T03:57:35.032Z,44.78
2017-06-14T03:58:44.979Z,44.59
2017-06-14T03:59:54.925Z,44.78
2017-06-14T04:01:05.188Z,44.87
2017-06-14T04:02:15.448Z,45.07
2017-06-14T04:03:25.707Z,44.97
2017-06-14T04:04:35.654Z,44.78
2017-06-14T04:05:45.912Z,44.97
2017-06-14T04:06:56.169Z,45.07
2017-06-14T04:08:06.117Z,45.07
2017-06-14T04:09:15.751Z,44.68
2017-06-14T04:10:25.387Z,44.68
2017-06-14T04:11:35.645Z,44.59
2017-06-14T04:12:45.911Z,44.29
2017-06-14T04:13:55.860Z,44.49
2017-06-14T04:15:05.808Z,44.39
2017-06-14T04:16:15.756Z,44.49
2017-06-14T04:17:25.702Z,44.39
2017-06-14T04:18:35.644Z,44.49
2017-06-14T04:19:45.590Z,44.78
2017-06-14T04:20:55.540Z,44.59
2017-06-14T04:22:05.497Z,44.59
2017-06-14T04:23:14.810Z,44.78
2017-06-14T04:24:25.073Z,44.87
2017-06-14T04:25:35.021Z,44.68
2017-06-14T04:26:44.972Z,44.59
2017-06-14T04:27:55.232Z,44.49
2017-06-14T04:29:04.895Z,44.49
2017-06-14T04:30:15.154Z,44.2
2017-06-14T04:31:25.420Z,44.59
2017-06-14T04:32:35.364Z,44.49
2017-06-14T04:33:45.625Z,44.2
2017-06-14T04:34:54.942Z,44.68
2017-06-14T04:36:05.210Z,44.49
2017-06-14T04:37:15.476Z,44.1
2017-06-14T04:38:25.733Z,44.29
2017-06-14T04:39:35.685Z,44.39
2017-06-14T04:40:45.945Z,44.29
2017-06-14T04:41:56.206Z,44.29
2017-06-14T04:43:06.151Z,44.68
2017-06-14T04:44:16.405Z,44.87
2017-06-14T04:45:26.659Z,44.49
2017-06-14T04:46:36.600Z,44.2
2017-06-14T04:47:46.868Z,44.1
2017-06-14T04:48:56.815Z,44.2
2017-06-14T04:50:06.445Z,44.1
2017-06-14T04:51:16.079Z,44.2
2017-06-14T04:52:26.346Z,44.2
2017-06-14T04:53:36.288Z,44.87
2017-06-14T04:54:46.230Z,44.2
2017-06-14T04:55:56.495Z,44.87
2017-06-14T04:57:06.128Z,44.49
2017-06-14T04:58:16.393Z,44.2
2017-06-14T04:59:26.337Z,44.87
2017-06-14T05:00:36.608Z,44.1
2017-06-14T05:01:46.244Z,44.2
2017-06-14T05:02:56.507Z,44.97
2017-06-14T05:04:06.763Z,44.29
2017-06-14T05:05:16.726Z,44.29
2017-06-14T05:06:26.047Z,44.87
2017-06-14T05:07:36.313Z,44.87
2017-06-14T05:08:46.578Z,44.49
2017-06-14T05:09:56.840Z,44.29
2017-06-14T05:11:07.106Z,44.49
2017-06-14T05:12:16.736Z,44.68
2017-06-14T05:13:26.364Z,44.68
2017-06-14T05:14:36.310Z,44.2
2017-06-14T05:15:46.566Z,44.68
2017-06-14T05:16:56.521Z,44.29
2017-06-14T05:18:06.476Z,44.29
2017-06-14T05:19:16.421Z,44.78
2017-06-14T05:20:26.054Z,44.2
2017-06-14T05:21:36.317Z,44.29
2017-06-14T05:22:46.267Z,44.2
2017-06-14T05:23:56.528Z,44.29
2017-06-14T05:25:06.481Z,44.49
2017-06-14T05:26:16.116Z,44.39
2017-06-14T05:27:25.752Z,44.49
2017-06-14T05:28:36.021Z,44.29
2017-06-14T05:29:46.288Z,44.29
2017-06-14T05:30:55.929Z,43.81
2017-06-14T05:32:06.224Z,44.29
2017-06-14T05:33:16.165Z,44.29
2017-06-14T05:34:26.430Z,44.29
2017-06-14T05:35:36.693Z,44.29
2017-06-14T05:36:46.648Z,44.1
2017-06-14T05:37:56.913Z,44.29
2017-06-14T05:39:07.227Z,44.2
2017-06-14T05:40:17.178Z,44.1
2017-06-14T05:41:27.127Z,44.1
2017-06-14T05:42:36.766Z,44.2
2017-06-14T05:43:46.402Z,44.1
2017-06-14T05:44:56.351Z,44.2
2017-06-14T05:46:06.302Z,44.29
2017-06-14T05:47:16.247Z,44.22
2017-06-14T05:48:26.510Z,44.03
2017-06-14T05:49:36.772Z,44.42
2017-06-14T05:50:47.043Z,43.84
2017-06-14T05:51:56.682Z,44.12
2017-06-14T05:53:06.983Z,43.91
2017-06-14T05:54:16.945Z,43.74
2017-06-14T05:55:26.896Z,43.74
2017-06-14T05:56:36.846Z,44.03
2017-06-14T05:57:46.478Z,43.74
2017-06-14T05:58:56.740Z,43.93
2017-06-14T06:00:07.007Z,43.74
2017-06-14T06:01:16.985Z,43.93
2017-06-14T06:02:27.251Z,43.93
2017-06-14T06:03:37.204Z,43.84
2017-06-14T06:04:47.149Z,43.74
2017-06-14T06:05:57.093Z,43.81
2017-06-14T06:07:07.040Z,43.93
2017-06-14T06:08:17.295Z,43.93
2017-06-14T06:09:26.928Z,43.84
2017-06-14T06:10:37.202Z,43.84
2017-06-14T06:11:47.455Z,43.74
2017-06-14T06:12:57.111Z,43.84
2017-06-14T06:14:07.058Z,43.93
2017-06-14T06:15:17.317Z,43.45
2017-06-14T06:16:27.263Z,43.26
2017-06-14T06:17:36.892Z,43.74
2017-06-14T06:18:47.154Z,43.64
2017-06-14T06:19:57.414Z,43.26
2017-06-14T06:21:07.677Z,43.45
2017-06-14T06:22:17.623Z,43.35
2017-06-14T06:23:27.889Z,43.64
2017-06-14T06:24:38.157Z,43.54
2017-06-14T06:25:47.505Z,43.74
2017-06-14T06:26:57.174Z,43.64
2017-06-14T06:28:07.447Z,43.64
2017-06-14T06:29:17.718Z,43.64
2017-06-14T06:30:27.984Z,43.64
2017-06-14T06:31:38.247Z,43.54
2017-06-14T06:32:48.186Z,43.54
2017-06-14T06:33:57.837Z,43.64
2017-06-14T06:35:07.781Z,43.35
2017-06-14T06:36:17.724Z,43.64
2017-06-14T06:37:27.672Z,43.93
2017-06-14T06:38:37.624Z,43.74
2017-06-14T06:39:47.256Z,43.54
2017-06-14T06:40:57.517Z,44.03
2017-06-14T06:42:07.149Z,43.54
2017-06-14T06:43:17.414Z,43.26
2017-06-14T06:44:27.370Z,43.45
2017-06-14T06:45:37.002Z,43.74
2017-06-14T06:46:46.330Z,43.26
2017-06-14T06:47:56.598Z,43.64
2017-06-14T06:49:06.551Z,43.54
2017-06-14T06:50:16.818Z,43.64
2017-06-14T06:51:26.768Z,43.64
2017-06-14T06:52:36.724Z,43.64
2017-06-14T06:53:46.675Z,43.54
2017-06-14T06:54:56.944Z,43.45
2017-06-14T06:56:07.207Z,43.74
2017-06-14T06:57:17.472Z,43.54
2017-06-14T06:58:27.425Z,43.64
2017-06-14T06:59:37.691Z,43.54
2017-06-14T07:00:47.646Z,43.64
2017-06-14T07:01:57.598Z,43.54
2017-06-14T07:03:07.863Z,42.19
2017-06-14T07:04:17.493Z,42.19
2017-06-14T07:05:27.761Z,42.56
2017-06-14T07:06:38.027Z,42.56
2017-06-14T07:07:47.973Z,42.75
2017-06-14T07:08:57.612Z,42.66
2017-06-14T07:10:07.245Z,42.36
2017-06-14T07:11:17.202Z,42.46
2017-06-14T07:12:27.467Z,42.75
2017-06-14T07:13:37.112Z,42.66
2017-06-14T07:14:47.368Z,42.75
2017-06-14T07:15:57.637Z,42.29
2017-06-14T07:17:07.938Z,42.36
2017-06-14T07:18:17.571Z,41.88
2017-06-14T07:19:27.836Z,42.27
2017-06-14T07:20:37.154Z,41.6
2017-06-14T07:21:47.099Z,41.78
2017-06-14T07:22:56.731Z,41.6
2017-06-14T07:24:06.365Z,41.6
2017-06-14T07:25:16.313Z,41.6
2017-06-14T07:26:26.286Z,41.5
2017-06-14T07:27:36.236Z,41.38
2017-06-14T07:28:45.565Z,42.44
2017-06-14T07:29:55.510Z,42.32
2017-06-14T07:31:05.456Z,42.03
2017-06-14T07:32:15.720Z,42.25
2017-06-14T07:33:25.986Z,42.25
2017-06-14T07:34:35.932Z,42.35
2017-06-14T07:35:46.203Z,42.35
2017-06-14T07:36:56.473Z,41.96
2017-06-14T07:38:06.745Z,42.25
2017-06-14T07:39:17.024Z,42.35
2017-06-14T07:40:26.971Z,42.73
2017-06-14T07:41:37.233Z,42.83
2017-06-14T07:42:47.497Z,42.56
2017-06-14T07:43:57.129Z,42.46
2017-06-14T07:45:06.763Z,42.75
2017-06-14T07:46:16.727Z,42.58
2017-06-14T07:47:26.678Z,42.58
2017-06-14T07:48:36.629Z,42.48
2017-06-14T07:49:46.928Z,42.39
2017-06-14T07:50:56.613Z,42.48
2017-06-14T07:52:05.931Z,42.58
2017-06-14T07:53:16.202Z,42.87
2017-06-14T07:54:26.463Z,43.06
2017-06-14T07:55:36.408Z,43.16
2017-06-14T07:56:46.035Z,43.45
2017-06-14T07:57:55.977Z,43.26
2017-06-14T07:59:05.286Z,43.35
2017-06-14T08:00:15.541Z,43.06
2017-06-14T08:01:25.488Z,43.16
2017-06-14T08:02:34.801Z,43.16
2017-06-14T08:03:44.436Z,43.35
2017-06-14T08:04:54.701Z,43.26
2017-06-14T08:06:04.017Z,43.54
2017-06-14T08:07:13.962Z,43.35
2017-06-14T08:08:23.920Z,43.26
2017-06-14T08:09:34.175Z,43.54
2017-06-14T08:10:44.432Z,43.84
2017-06-14T08:11:54.740Z,43.74
2017-06-14T08:13:05.014Z,43.54
2017-06-14T08:14:15.280Z,43.74
2017-06-14T08:15:25.550Z,43.54
2017-06-14T08:16:35.812Z,43.54
2017-06-14T08:17:45.758Z,43.64
2017-06-14T08:18:55.392Z,44.05
2017-06-14T08:20:05.657Z,43.64
2017-06-14T08:21:15.607Z,44.12
2017-06-14T08:22:25.240Z,43.37
2017-06-14T08:23:34.885Z,43.84
2017-06-14T08:24:44.518Z,43.47
2017-06-14T08:25:54.457Z,43.54
2017-06-14T08:27:04.723Z,43.95
2017-06-14T08:28:14.668Z,43.85
2017-06-14T08:29:24.618Z,43.93
2017-06-14T08:30:34.571Z,44.15
2017-06-14T08:31:44.206Z,44.15
2017-06-14T08:32:53.534Z,44.15
2017-06-14T08:34:03.491Z,44.15
2017-06-14T08:35:13.747Z,43.76
2017-06-14T08:36:23.393Z,43.66
2017-06-14T08:37:33.357Z,43.66
2017-06-14T08:38:43.301Z,44.05
2017-06-14T08:39:53.246Z,43.76
2017-06-14T08:41:03.241Z,44.05
2017-06-14T08:42:13.500Z,43.95
2017-06-14T08:43:23.765Z,44.24
2017-06-14T08:44:34.036Z,44.24
2017-06-14T08:45:43.985Z,44.15
2017-06-14T08:46:53.324Z,44.24
2017-06-14T08:48:02.962Z,44.24
2017-06-14T08:49:13.223Z,44.15
2017-06-14T08:50:23.172Z,44.34
2017-06-14T08:51:33.429Z,44.63
2017-06-14T08:52:43.061Z,43.95
2017-06-14T08:53:53.006Z,44.34
2017-06-14T08:55:02.635Z,44.73
2017-06-14T08:56:12.908Z,44.34
2017-06-14T08:57:23.174Z,44.43
2017-06-14T08:58:33.431Z,44.34
2017-06-14T08:59:43.383Z,44.63
2017-06-14T09:00:53.704Z,44.53
2017-06-14T09:02:03.982Z,44.53
2017-06-14T09:03:14.243Z,44.53
2017-06-14T09:04:24.504Z,44.24
2017-06-14T09:05:34.451Z,44.53
2017-06-14T09:06:44.715Z,44.43
2017-06-14T09:07:54.978Z,44.24
2017-06-14T09:09:04.927Z,45.01
2017-06-14T09:10:14.561Z,44.53
2017-06-14T09:11:24.509Z,45.11
2017-06-14T09:12:34.142Z,44.05
2017-06-14T09:13:44.091Z,44.43
2017-06-14T09:14:54.035Z,44.34
2017-06-14T09:16:04.295Z,44.82
2017-06-14T09:17:14.243Z,44.82
2017-06-14T09:18:24.504Z,44.24
2017-06-14T09:19:33.822Z,44.82
2017-06-14T09:20:43.780Z,44.24
2017-06-14T09:21:54.052Z,44.34
2017-06-14T09:23:04.318Z,44.24
2017-06-14T09:24:13.958Z,44.82
2017-06-14T09:25:23.905Z,44.24
2017-06-14T09:26:33.532Z,44.34
2017-06-14T09:27:43.479Z,44.05
2017-06-14T09:28:53.743Z,44.24
2017-06-14T09:30:04.018Z,44.24
2017-06-14T09:31:13.655Z,44.24
2017-06-14T09:32:23.601Z,44.92
2017-06-14T09:33:33.547Z,44.92
2017-06-14T09:34:43.497Z,44.15
2017-06-14T09:35:53.450Z,44.15
2017-06-14T09:37:03.721Z,44.24
2017-06-14T09:38:13.984Z,44.24
2017-06-14T09:39:23.935Z,44.34
2017-06-14T09:40:33.576Z,44.82
2017-06-14T09:41:43.255Z,44.92
2017-06-14T09:42:52.953Z,44.73
2017-06-14T09:44:02.904Z,44.92
2017-06-14T09:45:12.855Z,44.24
2017-06-14T09:46:23.108Z,44.82
2017-06-14T09:47:33.389Z,44.24
2017-06-14T09:48:43.024Z,44.82
2017-06-14T09:49:53.282Z,44.15
2017-06-14T09:51:03.554Z,44.15
2017-06-14T09:52:13.508Z,44.82
2017-06-14T09:53:23.767Z,44.24
2017-06-14T09:54:33.721Z,44.53
2017-06-14T09:55:43.986Z,44.53
2017-06-14T09:56:54.252Z,44.43
2017-06-14T09:58:03.882Z,44.53
2017-06-14T09:59:14.144Z,44.43
2017-06-14T10:00:23.492Z,44.34
2017-06-14T10:01:33.439Z,44.43
2017-06-14T10:02:43.702Z,44.43
2017-06-14T10:03:53.336Z,44.73
2017-06-14T10:05:03.284Z,44.63
2017-06-14T10:06:13.232Z,44.43
2017-06-14T10:07:23.175Z,44.15
2017-06-14T10:08:33.124Z,44.43
2017-06-14T10:09:42.755Z,44.43
2017-06-14T10:10:52.396Z,44.15
2017-06-14T10:12:02.671Z,44.24
2017-06-14T10:13:12.935Z,44.43
2017-06-14T10:14:22.883Z,44.63
2017-06-14T10:15:32.833Z,44.24
2017-06-14T10:16:42.783Z,44.63
2017-06-14T10:17:53.044Z,44.05
2017-06-14T10:19:03.310Z,44.53
2017-06-14T10:20:12.943Z,44.53
2017-06-14T10:21:23.203Z,44.43
2017-06-14T10:22:33.457Z,44.34
2017-06-14T10:23:43.716Z,44.53
2017-06-14T10:24:53.664Z,44.53
2017-06-14T10:26:03.923Z,44.34
2017-06-14T10:27:13.559Z,44.53
2017-06-14T10:28:23.515Z,44.24
2017-06-14T10:29:33.155Z,44.53
2017-06-14T10:30:43.436Z,44.34
2017-06-14T10:31:53.707Z,44.24
2017-06-14T10:33:03.656Z,44.24
2017-06-14T10:34:13.611Z,44.24
2017-06-14T10:35:23.559Z,44.43
2017-06-14T10:36:33.509Z,44.53
2017-06-14T10:37:43.775Z,44.63
2017-06-14T10:38:54.089Z,44.63
2017-06-14T10:40:04.041Z,44.63
2017-06-14T10:41:13.987Z,44.63
2017-06-14T10:42:24.252Z,44.92
2017-06-14T10:43:34.199Z,44.63
2017-06-14T10:44:44.159Z,44.63
2017-06-14T10:45:54.423Z,44.63
2017-06-14T10:47:04.372Z,44.92
2017-06-14T10:48:14.312Z,44.53
2017-06-14T10:49:23.941Z,44.53
2017-06-14T10:50:33.904Z,44.53
2017-06-14T10:51:43.227Z,44.92
2017-06-14T10:52:53.181Z,44.63
2017-06-14T10:54:03.132Z,44.92
2017-06-14T10:55:12.764Z,44.53
2017-06-14T10:56:22.720Z,44.53
2017-06-14T10:57:32.692Z,44.82
2017-06-14T10:58:42.960Z,44.43
2017-06-14T10:59:52.911Z,44.82
2017-06-14T11:01:02.863Z,44.92
2017-06-14T11:02:12.502Z,44.92
2017-06-14T11:03:22.445Z,44.82
2017-06-14T11:04:32.403Z,44.73
2017-06-14T11:05:42.663Z,44.73
2017-06-14T11:06:52.297Z,44.82
2017-06-14T11:08:02.247Z,44.63
2017-06-14T11:09:12.552Z,44.92
2017-06-14T11:10:22.504Z,44.53
2017-06-14T11:11:32.453Z,44.92
2017-06-14T11:12:42.400Z,44.53
2017-06-14T11:13:52.349Z,44.82
2017-06-14T11:15:01.983Z,44.53
2017-06-14T11:16:11.612Z,44.73
2017-06-14T11:17:21.554Z,44.73
2017-06-14T11:18:31.820Z,44.92
2017-06-14T11:19:41.766Z,44.73
2017-06-14T11:20:52.035Z,44.92
2017-06-14T11:22:02.300Z,45.01
2017-06-14T11:23:12.253Z,44.82
2017-06-14T11:24:22.514Z,45.01
2017-06-14T11:25:32.783Z,44.92
2017-06-14T11:26:43.048Z,44.73
2017-06-14T11:27:53.005Z,44.92
2017-06-14T11:29:02.949Z,44.53
2017-06-14T11:30:12.892Z,44.53
2017-06-14T11:31:23.201Z,45.01
2017-06-14T11:32:32.834Z,45.01
2017-06-14T11:33:42.471Z,44.73
2017-06-14T11:34:52.733Z,44.53
2017-06-14T11:36:03.002Z,44.92
2017-06-14T11:37:13.306Z,44.73
2017-06-14T11:38:23.249Z,44.82
2017-06-14T11:39:32.883Z,44.92
2017-06-14T11:40:42.515Z,44.82
2017-06-14T11:41:52.777Z,44.82
2017-06-14T11:43:03.045Z,44.92
2017-06-14T11:44:12.678Z,45.11
2017-06-14T11:45:22.310Z,45.01
2017-06-14T11:46:32.258Z,44.53
2017-06-14T11:47:41.580Z,44.82
2017-06-14T11:48:51.840Z,44.92
2017-06-14T11:50:01.472Z,45.11
2017-06-14T11:51:11.417Z,44.73
2017-06-14T11:52:21.678Z,44.82
2017-06-14T11:53:31.307Z,44.24
2017-06-14T11:54:41.257Z,43.16
2017-06-14T11:55:51.520Z,43.16
2017-06-14T11:57:01.789Z,42.19
2017-06-14T11:58:11.111Z,41.71
2017-06-14T11:59:21.409Z,41.42
2017-06-14T12:00:31.366Z,42.19
2017-06-14T12:01:41.628Z,43.35
2017-06-14T12:02:51.892Z,43.45
2017-06-14T12:04:01.538Z,43.06
2017-06-14T12:05:11.484Z,43.16
2017-06-14T12:06:21.431Z,43.54
2017-06-14T12:07:31.701Z,43.66
2017-06-14T12:08:41.649Z,43.74
2017-06-14T12:09:51.913Z,43.85
2017-06-14T12:11:01.869Z,44.12
2017-06-14T12:12:12.130Z,44.15
2017-06-14T12:13:21.450Z,44.12
2017-06-14T12:14:31.716Z,43.85
2017-06-14T12:15:41.666Z,44.24
2017-06-14T12:16:51.614Z,44.15
2017-06-14T12:18:00.940Z,44.24
2017-06-14T12:19:10.570Z,44.24
2017-06-14T12:20:20.838Z,43.95
2017-06-14T12:21:31.107Z,44.34
2017-06-14T12:22:41.376Z,44.53
2017-06-14T12:23:51.333Z,44.34
2017-06-14T12:25:00.655Z,44.73
2017-06-14T12:26:10.606Z,44.34
2017-06-14T12:27:20.873Z,44.43
2017-06-14T12:28:31.142Z,44.34
2017-06-14T12:29:41.094Z,44.73
2017-06-14T12:30:51.367Z,44.15
2017-06-14T12:32:01.632Z,44.34
2017-06-14T12:33:11.898Z,44.15
2017-06-14T12:34:22.154Z,44.73
2017-06-14T12:35:32.106Z,44.63
2017-06-14T12:36:42.056Z,44.92
2017-06-14T12:37:51.369Z,44.15
2017-06-14T12:39:01.636Z,44.53
2017-06-14T12:40:11.901Z,44.82
2017-06-14T12:41:22.181Z,44.92
2017-06-14T12:42:32.128Z,44.82
2017-06-14T12:43:42.072Z,44.82
2017-06-14T12:44:52.337Z,45.11
2017-06-14T12:46:02.284Z,44.82
2017-06-14T12:47:11.926Z,44.73
2017-06-14T12:48:22.190Z,45.11
2017-06-14T12:49:32.457Z,44.82
2017-06-14T12:50:42.398Z,44.63
2017-06-14T12:51:52.664Z,45.21
2017-06-14T12:53:02.296Z,45.11
2017-06-14T12:54:12.243Z,45.21
2017-06-14T12:55:22.188Z,45.31
2017-06-14T12:56:32.451Z,45.79
2017-06-14T12:57:42.722Z,45.21
2017-06-14T12:58:52.994Z,45.11
2017-06-14T13:00:02.949Z,45.21
2017-06-14T13:01:12.902Z,44.82
2017-06-14T13:02:22.845Z,45.59
2017-06-14T13:03:32.837Z,44.92
2017-06-14T13:04:43.105Z,45.11
2017-06-14T13:05:53.053Z,45.5
2017-06-14T13:07:02.685Z,45.69
2017-06-14T13:08:11.998Z,45.42
2017-06-14T13:09:22.252Z,45.59
2017-06-14T13:10:32.521Z,45.11
2017-06-14T13:11:42.471Z,45.89
2017-06-14T13:12:52.415Z,45.98
2017-06-14T13:14:02.677Z,45.21
2017-06-14T13:15:12.937Z,46.08
2017-06-14T13:16:23.204Z,46.08
2017-06-14T13:17:33.474Z,45.31
2017-06-14T13:18:43.743Z,46.17
2017-06-14T13:19:54.004Z,46.17
2017-06-14T13:21:04.270Z,45.4
2017-06-14T13:22:14.213Z,45.4
2017-06-14T13:23:23.849Z,46.17
2017-06-14T13:24:33.794Z,44.43
2017-06-14T13:25:43.743Z,42.79
2017-06-14T13:26:53.697Z,40.36
2017-06-14T13:28:03.964Z,41.23
2017-06-14T13:29:13.611Z,40.26
2017-06-14T13:30:23.597Z,40.17
2017-06-14T13:31:33.544Z,40.26
2017-06-14T13:32:43.535Z,41.33
2017-06-14T13:33:53.831Z,41.03
2017-06-14T13:35:04.103Z,41.23
2017-06-14T13:36:14.057Z,40.94
2017-06-14T13:37:24.354Z,41.13
2017-06-14T13:38:34.308Z,40.65
2017-06-14T13:39:44.264Z,41.52
2017-06-14T13:40:54.525Z,41.52
2017-06-14T13:42:04.471Z,41.42
2017-06-14T13:43:14.731Z,40.45
2017-06-14T13:44:24.679Z,40.45
2017-06-14T13:45:34.630Z,39.69
2017-06-14T13:46:44.889Z,40.36
2017-06-14T13:47:55.150Z,40.07
2017-06-14T13:49:04.786Z,40.36
2017-06-14T13:50:14.737Z,40.36
2017-06-14T13:54:04.652Z,38.45
2017-06-14T13:55:13.969Z,40.77
2017-06-14T13:56:24.224Z,40.26
2017-06-14T13:57:34.175Z,38.81
2017-06-14T13:58:44.443Z,38.53
2017-06-14T13:59:54.391Z,40.07
2017-06-14T14:01:04.027Z,40.26
2017-06-14T14:02:14.292Z,40.17
2017-06-14T14:03:23.930Z,40.26
2017-06-14T14:04:33.874Z,41.33
2017-06-14T14:05:43.825Z,40.36
2017-06-14T14:06:53.777Z,40.45
2017-06-14T14:08:04.038Z,40.36
2017-06-14T14:09:14.298Z,40.07
2017-06-14T14:10:24.249Z,39.87
2017-06-14T14:11:34.201Z,39.59
2017-06-14T14:12:43.837Z,40.07
2017-06-14T14:13:53.784Z,39.97
2017-06-14T14:15:04.047Z,39.49
2017-06-14T14:16:13.994Z,39.2
2017-06-14T14:17:24.283Z,39.11
2017-06-14T14:18:34.230Z,40.26
2017-06-14T14:19:44.178Z,41.13
2017-06-14T14:20:54.123Z,40.65
2017-06-14T14:22:03.486Z,39.39
2017-06-14T14:23:13.434Z,39.49
2017-06-14T14:24:23.698Z,39.11
2017-06-14T14:25:33.644Z,39.2
2017-06-14T14:26:43.907Z,38.91
2017-06-14T14:27:53.856Z,39.39
2017-06-14T14:29:03.811Z,40.17
2017-06-14T14:30:13.761Z,40.17
2017-06-14T14:31:24.023Z,40.36
2017-06-14T14:32:34.284Z,40.84
2017-06-14T14:33:44.551Z,40.45
2017-06-14T14:34:54.505Z,40.65
2017-06-14T14:36:04.764Z,40.17
2017-06-14T14:37:14.404Z,41.03
2017-06-14T14:38:24.359Z,39.87
2017-06-14T14:39:34.314Z,39.49
2017-06-14T14:40:44.579Z,39.97
2017-06-14T14:41:54.837Z,40.17
2017-06-14T14:43:04.788Z,40.26
2017-06-14T14:44:14.104Z,40.45
2017-06-14T14:45:24.373Z,40.17
2017-06-14T14:46:34.017Z,40.26
2017-06-14T14:47:44.287Z,39.87
2017-06-14T14:48:54.231Z,40.17
2017-06-14T14:50:04.201Z,40.17
2017-06-14T14:51:14.151Z,39.87
2017-06-14T14:52:24.095Z,40.26
2017-06-14T14:53:34.043Z,40.36
2017-06-14T14:54:43.989Z,40.45
2017-06-14T14:55:53.956Z,39.78
2017-06-14T14:57:04.217Z,40.07
2017-06-14T14:58:14.163Z,40.07
2017-06-14T14:59:24.425Z,40.36
2017-06-14T15:00:34.691Z,39.78
2017-06-14T15:01:44.957Z,39.2
2017-06-14T15:02:54.907Z,39.39
2017-06-14T15:04:04.857Z,39.59
2017-06-14T15:05:14.807Z,39.87
2017-06-14T15:06:24.757Z,40.07
2017-06-14T15:07:35.022Z,40.26